sensor_id;sensor_type;location;lat;lon;timestamp;temperature;humidity
25192;DHT22;13143;50.924;5.320;2022-08-21T00:00:14;20.90;99.00
25192;DHT22;13143;50.924;5.320;2022-08-21T00:02:54;20.80;99.10
25192;DHT22;13143;50.924;5.320;2022-08-21T00:05:20;20.80;99.20
25192;DHT22;13143;50.924;5.320;2022-08-21T00:07:47;20.80;99.20
25192;DHT22;13143;50.924;5.320;2022-08-21T00:10:13;20.80;99.20
25192;DHT22;13143;50.924;5.320;2022-08-21T00:12:39;20.70;99.10
25192;DHT22;13143;50.924;5.320;2022-08-21T00:15:08;20.70;99.20
25192;DHT22;13143;50.924;5.320;2022-08-21T00:17:34;20.60;99.20
25192;DHT22;13143;50.924;5.320;2022-08-21T00:19:59;20.60;99.20
25192;DHT22;13143;50.924;5.320;2022-08-21T00:22:25;20.60;99.20
25192;DHT22;13143;50.924;5.320;2022-08-21T00:24:51;20.60;99.20
25192;DHT22;13143;50.924;5.320;2022-08-21T00:27:16;20.50;99.40
25192;DHT22;13143;50.924;5.320;2022-08-21T00:29:42;20.50;99.30
25192;DHT22;13143;50.924;5.320;2022-08-21T00:32:08;20.50;99.30
25192;DHT22;13143;50.924;5.320;2022-08-21T00:34:33;20.40;99.20
25192;DHT22;13143;50.924;5.320;2022-08-21T00:36:59;20.40;99.30
25192;DHT22;13143;50.924;5.320;2022-08-21T00:39:25;20.40;99.30
25192;DHT22;13143;50.924;5.320;2022-08-21T00:41:50;20.40;99.30
25192;DHT22;13143;50.924;5.320;2022-08-21T00:44:16;20.30;99.20
25192;DHT22;13143;50.924;5.320;2022-08-21T00:46:42;20.30;99.20
25192;DHT22;13143;50.924;5.320;2022-08-21T00:49:09;20.30;99.20
25192;DHT22;13143;50.924;5.320;2022-08-21T00:51:53;20.30;99.30
25192;DHT22;13143;50.924;5.320;2022-08-21T00:54:22;20.20;99.30
25192;DHT22;13143;50.924;5.320;2022-08-21T00:56:54;20.20;99.20
25192;DHT22;13143;50.924;5.320;2022-08-21T00:59:21;20.20;99.30
25192;DHT22;13143;50.924;5.320;2022-08-21T01:01:48;20.20;99.30
25192;DHT22;13143;50.924;5.320;2022-08-21T01:04:15;20.10;99.20
25192;DHT22;13143;50.924;5.320;2022-08-21T01:06:42;20.10;99.20
25192;DHT22;13143;50.924;5.320;2022-08-21T01:09:08;20.10;99.20
25192;DHT22;13143;50.924;5.320;2022-08-21T01:11:34;20.10;99.20
25192;DHT22;13143;50.924;5.320;2022-08-21T01:14:00;20.10;99.20
25192;DHT22;13143;50.924;5.320;2022-08-21T01:16:26;20.00;99.20
25192;DHT22;13143;50.924;5.320;2022-08-21T01:18:52;20.00;99.20
25192;DHT22;13143;50.924;5.320;2022-08-21T01:21:23;20.00;99.30
25192;DHT22;13143;50.924;5.320;2022-08-21T01:23:52;20.00;99.30
25192;DHT22;13143;50.924;5.320;2022-08-21T01:26:26;19.90;99.30
25192;DHT22;13143;50.924;5.320;2022-08-21T01:29:03;19.90;99.40
25192;DHT22;13143;50.924;5.320;2022-08-21T01:31:30;20.00;99.40
25192;DHT22;13143;50.924;5.320;2022-08-21T01:33:58;19.90;99.30
25192;DHT22;13143;50.924;5.320;2022-08-21T01:36:25;19.90;99.30
25192;DHT22;13143;50.924;5.320;2022-08-21T01:38:51;19.80;99.40
25192;DHT22;13143;50.924;5.320;2022-08-21T01:41:17;19.80;99.40
25192;DHT22;13143;50.924;5.320;2022-08-21T01:43:44;19.80;99.40
25192;DHT22;13143;50.924;5.320;2022-08-21T01:46:11;19.70;99.40
25192;DHT22;13143;50.924;5.320;2022-08-21T01:48:37;19.70;99.40
25192;DHT22;13143;50.924;5.320;2022-08-21T01:51:04;19.70;99.50
25192;DHT22;13143;50.924;5.320;2022-08-21T01:53:32;19.70;99.50
25192;DHT22;13143;50.924;5.320;2022-08-21T01:55:59;19.60;99.40
25192;DHT22;13143;50.924;5.320;2022-08-21T01:58:25;19.70;99.50
25192;DHT22;13143;50.924;5.320;2022-08-21T02:00:51;19.60;99.40
25192;DHT22;13143;50.924;5.320;2022-08-21T02:03:16;19.60;99.50
25192;DHT22;13143;50.924;5.320;2022-08-21T02:05:42;19.60;99.50
25192;DHT22;13143;50.924;5.320;2022-08-21T02:08:08;19.60;99.50
25192;DHT22;13143;50.924;5.320;2022-08-21T02:10:34;19.50;99.50
25192;DHT22;13143;50.924;5.320;2022-08-21T02:13:00;19.50;99.50
25192;DHT22;13143;50.924;5.320;2022-08-21T02:15:27;19.50;99.50
25192;DHT22;13143;50.924;5.320;2022-08-21T02:17:59;19.50;99.60
25192;DHT22;13143;50.924;5.320;2022-08-21T02:20:26;19.40;99.60
25192;DHT22;13143;50.924;5.320;2022-08-21T02:22:53;19.40;99.60
25192;DHT22;13143;50.924;5.320;2022-08-21T02:25:20;19.40;99.60
25192;DHT22;13143;50.924;5.320;2022-08-21T02:27:47;19.40;99.60
25192;DHT22;13143;50.924;5.320;2022-08-21T02:30:22;19.40;99.70
25192;DHT22;13143;50.924;5.320;2022-08-21T02:32:48;19.30;99.90
25192;DHT22;13143;50.924;5.320;2022-08-21T02:35:14;19.30;99.80
25192;DHT22;13143;50.924;5.320;2022-08-21T02:37:49;19.30;99.90
25192;DHT22;13143;50.924;5.320;2022-08-21T02:40:16;19.20;99.80
25192;DHT22;13143;50.924;5.320;2022-08-21T02:42:42;19.30;99.90
25192;DHT22;13143;50.924;5.320;2022-08-21T02:45:10;19.20;99.80
25192;DHT22;13143;50.924;5.320;2022-08-21T02:47:36;19.20;99.80
25192;DHT22;13143;50.924;5.320;2022-08-21T02:50:06;19.20;99.80
25192;DHT22;13143;50.924;5.320;2022-08-21T02:52:32;19.10;99.80
25192;DHT22;13143;50.924;5.320;2022-08-21T02:54:59;19.10;99.90
25192;DHT22;13143;50.924;5.320;2022-08-21T02:57:24;19.10;99.90
25192;DHT22;13143;50.924;5.320;2022-08-21T02:59:50;19.10;99.90
25192;DHT22;13143;50.924;5.320;2022-08-21T03:02:16;19.10;99.90
25192;DHT22;13143;50.924;5.320;2022-08-21T03:04:41;19.10;99.90
25192;DHT22;13143;50.924;5.320;2022-08-21T03:07:07;19.00;99.90
25192;DHT22;13143;50.924;5.320;2022-08-21T03:09:32;19.00;99.90
25192;DHT22;13143;50.924;5.320;2022-08-21T03:11:58;19.00;99.90
25192;DHT22;13143;50.924;5.320;2022-08-21T03:14:24;19.00;99.90
25192;DHT22;13143;50.924;5.320;2022-08-21T03:16:49;18.90;99.90
25192;DHT22;13143;50.924;5.320;2022-08-21T03:19:15;18.90;99.90
25192;DHT22;13143;50.924;5.320;2022-08-21T03:21:41;18.90;99.90
25192;DHT22;13143;50.924;5.320;2022-08-21T03:24:06;18.90;99.90
25192;DHT22;13143;50.924;5.320;2022-08-21T03:26:32;18.90;99.90
25192;DHT22;13143;50.924;5.320;2022-08-21T03:28:58;18.90;99.90
25192;DHT22;13143;50.924;5.320;2022-08-21T03:31:24;18.80;99.90
25192;DHT22;13143;50.924;5.320;2022-08-21T03:33:54;18.80;99.90
25192;DHT22;13143;50.924;5.320;2022-08-21T03:36:20;18.80;99.90
25192;DHT22;13143;50.924;5.320;2022-08-21T03:38:46;18.80;99.90
25192;DHT22;13143;50.924;5.320;2022-08-21T03:41:12;18.70;99.90
25192;DHT22;13143;50.924;5.320;2022-08-21T03:43:38;18.70;99.90
25192;DHT22;13143;50.924;5.320;2022-08-21T03:46:04;18.70;99.90
25192;DHT22;13143;50.924;5.320;2022-08-21T03:48:31;18.60;99.90
25192;DHT22;13143;50.924;5.320;2022-08-21T03:50:57;18.70;99.90
25192;DHT22;13143;50.924;5.320;2022-08-21T03:53:23;18.60;99.90
25192;DHT22;13143;50.924;5.320;2022-08-21T03:55:50;18.60;99.90
25192;DHT22;13143;50.924;5.320;2022-08-21T03:58:19;18.60;99.90
25192;DHT22;13143;50.924;5.320;2022-08-21T04:00:47;18.60;99.90
25192;DHT22;13143;50.924;5.320;2022-08-21T04:03:14;18.50;99.90
25192;DHT22;13143;50.924;5.320;2022-08-21T04:05:40;18.50;99.90
25192;DHT22;13143;50.924;5.320;2022-08-21T04:08:06;18.50;99.90
25192;DHT22;13143;50.924;5.320;2022-08-21T04:10:35;18.40;99.90
25192;DHT22;13143;50.924;5.320;2022-08-21T04:13:02;18.40;99.90
25192;DHT22;13143;50.924;5.320;2022-08-21T04:15:28;18.40;99.90
25192;DHT22;13143;50.924;5.320;2022-08-21T04:17:54;18.40;99.90
25192;DHT22;13143;50.924;5.320;2022-08-21T04:20:21;18.30;99.90
25192;DHT22;13143;50.924;5.320;2022-08-21T04:22:47;18.30;99.90
25192;DHT22;13143;50.924;5.320;2022-08-21T04:25:14;18.30;99.90
25192;DHT22;13143;50.924;5.320;2022-08-21T04:27:40;18.20;99.90
25192;DHT22;13143;50.924;5.320;2022-08-21T04:30:07;18.20;99.90
25192;DHT22;13143;50.924;5.320;2022-08-21T04:32:35;18.20;99.90
25192;DHT22;13143;50.924;5.320;2022-08-21T04:35:03;18.20;99.90
25192;DHT22;13143;50.924;5.320;2022-08-21T04:37:30;18.20;99.90
25192;DHT22;13143;50.924;5.320;2022-08-21T04:39:56;18.10;99.90
25192;DHT22;13143;50.924;5.320;2022-08-21T04:42:27;18.10;99.90
25192;DHT22;13143;50.924;5.320;2022-08-21T04:44:54;18.00;99.90
25192;DHT22;13143;50.924;5.320;2022-08-21T04:47:21;18.00;99.90
25192;DHT22;13143;50.924;5.320;2022-08-21T04:49:47;18.00;99.90
25192;DHT22;13143;50.924;5.320;2022-08-21T04:52:16;18.00;99.90
25192;DHT22;13143;50.924;5.320;2022-08-21T04:54:44;18.00;99.90
25192;DHT22;13143;50.924;5.320;2022-08-21T04:57:11;17.90;99.90
25192;DHT22;13143;50.924;5.320;2022-08-21T04:59:45;17.90;99.90
25192;DHT22;13143;50.924;5.320;2022-08-21T05:02:12;17.90;99.90
25192;DHT22;13143;50.924;5.320;2022-08-21T05:04:45;17.80;99.90
25192;DHT22;13143;50.924;5.320;2022-08-21T05:07:16;17.80;99.90
25192;DHT22;13143;50.924;5.320;2022-08-21T05:09:44;17.80;99.90
25192;DHT22;13143;50.924;5.320;2022-08-21T05:12:10;17.80;99.90
25192;DHT22;13143;50.924;5.320;2022-08-21T05:14:36;17.80;99.90
25192;DHT22;13143;50.924;5.320;2022-08-21T05:17:02;17.70;99.90
25192;DHT22;13143;50.924;5.320;2022-08-21T05:19:28;17.70;99.90
25192;DHT22;13143;50.924;5.320;2022-08-21T05:21:54;17.70;99.90
25192;DHT22;13143;50.924;5.320;2022-08-21T05:24:20;17.60;99.90
25192;DHT22;13143;50.924;5.320;2022-08-21T05:26:46;17.60;99.90
25192;DHT22;13143;50.924;5.320;2022-08-21T05:29:13;17.60;99.90
25192;DHT22;13143;50.924;5.320;2022-08-21T05:31:39;17.60;99.90
25192;DHT22;13143;50.924;5.320;2022-08-21T05:34:05;17.60;99.90
25192;DHT22;13143;50.924;5.320;2022-08-21T05:36:31;17.60;99.90
25192;DHT22;13143;50.924;5.320;2022-08-21T05:38:57;17.60;99.90
25192;DHT22;13143;50.924;5.320;2022-08-21T05:41:23;17.50;99.90
25192;DHT22;13143;50.924;5.320;2022-08-21T05:43:49;17.50;99.90
25192;DHT22;13143;50.924;5.320;2022-08-21T05:46:14;17.60;99.90
25192;DHT22;13143;50.924;5.320;2022-08-21T05:48:40;17.50;99.90
25192;DHT22;13143;50.924;5.320;2022-08-21T05:51:11;17.60;99.90
25192;DHT22;13143;50.924;5.320;2022-08-21T05:53:39;17.50;99.90
25192;DHT22;13143;50.924;5.320;2022-08-21T05:56:07;17.50;99.90
25192;DHT22;13143;50.924;5.320;2022-08-21T05:58:34;17.50;99.90
25192;DHT22;13143;50.924;5.320;2022-08-21T06:01:02;17.50;99.90
25192;DHT22;13143;50.924;5.320;2022-08-21T06:03:31;17.50;99.90
25192;DHT22;13143;50.924;5.320;2022-08-21T06:05:57;17.50;99.90
25192;DHT22;13143;50.924;5.320;2022-08-21T06:08:24;17.50;99.90
25192;DHT22;13143;50.924;5.320;2022-08-21T06:10:52;17.50;99.90
25192;DHT22;13143;50.924;5.320;2022-08-21T06:13:19;17.50;99.90
25192;DHT22;13143;50.924;5.320;2022-08-21T06:15:45;17.50;99.90
25192;DHT22;13143;50.924;5.320;2022-08-21T06:18:11;17.60;99.90
25192;DHT22;13143;50.924;5.320;2022-08-21T06:20:38;17.60;99.90
25192;DHT22;13143;50.924;5.320;2022-08-21T06:23:04;17.60;99.90
25192;DHT22;13143;50.924;5.320;2022-08-21T06:25:30;17.60;99.90
25192;DHT22;13143;50.924;5.320;2022-08-21T06:28:08;17.60;99.90
25192;DHT22;13143;50.924;5.320;2022-08-21T06:30:35;17.60;99.90
25192;DHT22;13143;50.924;5.320;2022-08-21T06:33:01;17.60;99.90
25192;DHT22;13143;50.924;5.320;2022-08-21T06:35:28;17.60;99.90
25192;DHT22;13143;50.924;5.320;2022-08-21T06:37:54;17.70;99.90
25192;DHT22;13143;50.924;5.320;2022-08-21T06:40:21;17.70;99.90
25192;DHT22;13143;50.924;5.320;2022-08-21T06:42:46;17.70;99.90
25192;DHT22;13143;50.924;5.320;2022-08-21T06:45:13;17.70;99.90
25192;DHT22;13143;50.924;5.320;2022-08-21T06:47:38;17.70;99.90
25192;DHT22;13143;50.924;5.320;2022-08-21T06:50:05;17.70;99.90
25192;DHT22;13143;50.924;5.320;2022-08-21T06:52:34;17.80;99.90
25192;DHT22;13143;50.924;5.320;2022-08-21T06:54:59;17.80;99.90
25192;DHT22;13143;50.924;5.320;2022-08-21T06:57:25;17.80;99.90
25192;DHT22;13143;50.924;5.320;2022-08-21T06:59:51;17.80;99.90
25192;DHT22;13143;50.924;5.320;2022-08-21T07:02:17;17.90;99.90
25192;DHT22;13143;50.924;5.320;2022-08-21T07:04:43;17.90;99.90
25192;DHT22;13143;50.924;5.320;2022-08-21T07:07:09;17.90;99.90
25192;DHT22;13143;50.924;5.320;2022-08-21T07:09:35;17.90;99.90
25192;DHT22;13143;50.924;5.320;2022-08-21T07:12:01;18.00;99.90
25192;DHT22;13143;50.924;5.320;2022-08-21T07:14:27;18.00;99.90
25192;DHT22;13143;50.924;5.320;2022-08-21T07:16:53;18.00;99.90
25192;DHT22;13143;50.924;5.320;2022-08-21T07:19:19;18.00;99.90
25192;DHT22;13143;50.924;5.320;2022-08-21T07:21:45;18.10;99.90
25192;DHT22;13143;50.924;5.320;2022-08-21T07:24:12;18.10;99.90
25192;DHT22;13143;50.924;5.320;2022-08-21T07:26:38;18.10;99.90
25192;DHT22;13143;50.924;5.320;2022-08-21T07:29:04;18.20;99.90
25192;DHT22;13143;50.924;5.320;2022-08-21T07:31:30;18.20;99.90
25192;DHT22;13143;50.924;5.320;2022-08-21T07:33:56;18.20;99.90
25192;DHT22;13143;50.924;5.320;2022-08-21T07:36:22;18.30;99.90
25192;DHT22;13143;50.924;5.320;2022-08-21T07:38:47;18.30;99.90
25192;DHT22;13143;50.924;5.320;2022-08-21T07:41:22;18.30;99.90
25192;DHT22;13143;50.924;5.320;2022-08-21T07:43:48;18.40;99.90
25192;DHT22;13143;50.924;5.320;2022-08-21T07:46:14;18.40;99.90
25192;DHT22;13143;50.924;5.320;2022-08-21T07:48:40;18.50;99.90
25192;DHT22;13143;50.924;5.320;2022-08-21T07:51:09;18.50;99.90
25192;DHT22;13143;50.924;5.320;2022-08-21T07:53:36;18.50;99.90
25192;DHT22;13143;50.924;5.320;2022-08-21T07:56:04;18.60;99.90
25192;DHT22;13143;50.924;5.320;2022-08-21T07:58:31;18.60;99.90
25192;DHT22;13143;50.924;5.320;2022-08-21T08:00:56;18.60;99.90
25192;DHT22;13143;50.924;5.320;2022-08-21T08:03:22;18.60;99.90
25192;DHT22;13143;50.924;5.320;2022-08-21T08:05:48;18.60;99.90
25192;DHT22;13143;50.924;5.320;2022-08-21T08:08:14;18.70;99.90
25192;DHT22;13143;50.924;5.320;2022-08-21T08:10:40;18.70;99.90
25192;DHT22;13143;50.924;5.320;2022-08-21T08:13:06;18.80;99.90
25192;DHT22;13143;50.924;5.320;2022-08-21T08:15:32;18.80;99.90
25192;DHT22;13143;50.924;5.320;2022-08-21T08:17:58;18.80;99.90
25192;DHT22;13143;50.924;5.320;2022-08-21T08:20:24;18.80;99.90
25192;DHT22;13143;50.924;5.320;2022-08-21T08:22:53;18.80;99.90
25192;DHT22;13143;50.924;5.320;2022-08-21T08:25:19;18.90;99.90
25192;DHT22;13143;50.924;5.320;2022-08-21T08:27:45;18.90;99.90
25192;DHT22;13143;50.924;5.320;2022-08-21T08:30:13;19.00;99.90
25192;DHT22;13143;50.924;5.320;2022-08-21T08:32:40;19.00;99.90
25192;DHT22;13143;50.924;5.320;2022-08-21T08:35:07;19.00;99.90
25192;DHT22;13143;50.924;5.320;2022-08-21T08:37:33;19.00;99.90
25192;DHT22;13143;50.924;5.320;2022-08-21T08:40:00;19.10;99.90
25192;DHT22;13143;50.924;5.320;2022-08-21T08:42:35;19.10;99.90
25192;DHT22;13143;50.924;5.320;2022-08-21T08:45:13;19.10;99.90
25192;DHT22;13143;50.924;5.320;2022-08-21T08:47:46;19.20;99.90
25192;DHT22;13143;50.924;5.320;2022-08-21T08:50:33;19.20;99.90
25192;DHT22;13143;50.924;5.320;2022-08-21T08:53:06;19.20;99.90
25192;DHT22;13143;50.924;5.320;2022-08-21T08:55:40;19.30;99.90
25192;DHT22;13143;50.924;5.320;2022-08-21T08:58:07;19.30;99.90
25192;DHT22;13143;50.924;5.320;2022-08-21T09:00:34;19.40;99.90
25192;DHT22;13143;50.924;5.320;2022-08-21T09:03:02;19.40;99.90
25192;DHT22;13143;50.924;5.320;2022-08-21T09:05:31;19.40;99.90
25192;DHT22;13143;50.924;5.320;2022-08-21T09:11:23;19.50;99.90
25192;DHT22;13143;50.924;5.320;2022-08-21T09:25:08;19.70;99.90
25192;DHT22;13143;50.924;5.320;2022-08-21T09:27:36;19.80;99.90
25192;DHT22;13143;50.924;5.320;2022-08-21T09:30:05;19.80;99.90
25192;DHT22;13143;50.924;5.320;2022-08-21T09:32:34;19.80;99.90
25192;DHT22;13143;50.924;5.320;2022-08-21T09:37:35;19.80;99.90
25192;DHT22;13143;50.924;5.320;2022-08-21T09:42:54;19.90;99.90
25192;DHT22;13143;50.924;5.320;2022-08-21T09:45:20;20.00;99.90
25192;DHT22;13143;50.924;5.320;2022-08-21T09:47:46;20.00;99.90
25192;DHT22;13143;50.924;5.320;2022-08-21T09:50:18;20.00;99.90
25192;DHT22;13143;50.924;5.320;2022-08-21T09:52:51;20.10;99.90
25192;DHT22;13143;50.924;5.320;2022-08-21T09:55:24;20.10;99.90
25192;DHT22;13143;50.924;5.320;2022-08-21T09:58:13;20.10;99.90
25192;DHT22;13143;50.924;5.320;2022-08-21T10:00:39;20.20;99.90
25192;DHT22;13143;50.924;5.320;2022-08-21T10:03:22;20.20;99.90
25192;DHT22;13143;50.924;5.320;2022-08-21T10:06:02;20.20;99.90
25192;DHT22;13143;50.924;5.320;2022-08-21T10:08:32;20.30;99.90
25192;DHT22;13143;50.924;5.320;2022-08-21T10:11:07;20.30;99.90
25192;DHT22;13143;50.924;5.320;2022-08-21T10:13:53;20.40;99.90
25192;DHT22;13143;50.924;5.320;2022-08-21T10:19:31;20.50;99.90
25192;DHT22;13143;50.924;5.320;2022-08-21T10:30:58;20.60;99.90
25192;DHT22;13143;50.924;5.320;2022-08-21T10:33:32;20.70;99.90
25192;DHT22;13143;50.924;5.320;2022-08-21T10:36:22;20.70;99.90
25192;DHT22;13143;50.924;5.320;2022-08-21T10:41:49;20.80;99.90
25192;DHT22;13143;50.924;5.320;2022-08-21T10:44:30;20.80;99.90
25192;DHT22;13143;50.924;5.320;2022-08-21T10:47:04;20.90;99.90
25192;DHT22;13143;50.924;5.320;2022-08-21T10:55:17;21.00;99.90
25192;DHT22;13143;50.924;5.320;2022-08-21T10:58:08;21.00;99.90
25192;DHT22;13143;50.924;5.320;2022-08-21T11:05:54;21.10;99.90
25192;DHT22;13143;50.924;5.320;2022-08-21T11:08:35;21.10;99.90
25192;DHT22;13143;50.924;5.320;2022-08-21T11:11:08;21.10;99.90
25192;DHT22;13143;50.924;5.320;2022-08-21T11:14:01;21.20;99.90
25192;DHT22;13143;50.924;5.320;2022-08-21T11:16:54;21.20;99.90
25192;DHT22;13143;50.924;5.320;2022-08-21T11:29:55;21.40;99.90
25192;DHT22;13143;50.924;5.320;2022-08-21T11:43:44;21.60;99.90
25192;DHT22;13143;50.924;5.320;2022-08-21T11:51:19;21.70;99.90
25192;DHT22;13143;50.924;5.320;2022-08-21T12:00:20;21.80;99.90
25192;DHT22;13143;50.924;5.320;2022-08-21T12:02:52;21.80;99.90
25192;DHT22;13143;50.924;5.320;2022-08-21T12:05:38;21.80;99.90
25192;DHT22;13143;50.924;5.320;2022-08-21T12:08:11;21.80;99.90
25192;DHT22;13143;50.924;5.320;2022-08-21T12:10:47;21.90;99.90
25192;DHT22;13143;50.924;5.320;2022-08-21T12:13:30;21.90;99.90
25192;DHT22;13143;50.924;5.320;2022-08-21T12:18:33;22.00;99.90
25192;DHT22;13143;50.924;5.320;2022-08-21T12:24:18;22.00;99.90
25192;DHT22;13143;50.924;5.320;2022-08-21T12:26:35;22.00;99.90
25192;DHT22;13143;50.924;5.320;2022-08-21T12:29:05;22.10;99.90
25192;DHT22;13143;50.924;5.320;2022-08-21T12:31:33;22.10;99.90
25192;DHT22;13143;50.924;5.320;2022-08-21T12:34:02;22.10;99.90
25192;DHT22;13143;50.924;5.320;2022-08-21T12:36:44;22.10;99.90
25192;DHT22;13143;50.924;5.320;2022-08-21T12:39:22;22.20;99.90
25192;DHT22;13143;50.924;5.320;2022-08-21T12:42:11;22.20;99.90
25192;DHT22;13143;50.924;5.320;2022-08-21T12:45:00;22.20;99.90
25192;DHT22;13143;50.924;5.320;2022-08-21T12:47:43;22.20;99.90
25192;DHT22;13143;50.924;5.320;2022-08-21T12:50:19;22.20;99.90
25192;DHT22;13143;50.924;5.320;2022-08-21T12:52:54;22.30;99.90
25192;DHT22;13143;50.924;5.320;2022-08-21T12:55:27;22.30;99.90
25192;DHT22;13143;50.924;5.320;2022-08-21T12:57:53;22.30;99.90
25192;DHT22;13143;50.924;5.320;2022-08-21T13:00:23;22.30;99.90
25192;DHT22;13143;50.924;5.320;2022-08-21T13:02:50;22.30;99.90
25192;DHT22;13143;50.924;5.320;2022-08-21T13:05:33;22.30;99.90
25192;DHT22;13143;50.924;5.320;2022-08-21T13:08:04;22.40;99.90
25192;DHT22;13143;50.924;5.320;2022-08-21T13:10:32;22.40;99.90
25192;DHT22;13143;50.924;5.320;2022-08-21T13:13:00;22.50;99.90
25192;DHT22;13143;50.924;5.320;2022-08-21T13:15:30;22.40;99.90
25192;DHT22;13143;50.924;5.320;2022-08-21T13:17:56;22.40;99.90
25192;DHT22;13143;50.924;5.320;2022-08-21T13:20:37;22.50;99.90
25192;DHT22;13143;50.924;5.320;2022-08-21T13:23:21;22.50;99.90
25192;DHT22;13143;50.924;5.320;2022-08-21T13:25:48;22.50;99.90
25192;DHT22;13143;50.924;5.320;2022-08-21T13:28:13;22.50;99.90
25192;DHT22;13143;50.924;5.320;2022-08-21T13:30:52;22.60;99.90
25192;DHT22;13143;50.924;5.320;2022-08-21T13:33:21;22.60;99.90
25192;DHT22;13143;50.924;5.320;2022-08-21T13:36:01;22.60;99.90
25192;DHT22;13143;50.924;5.320;2022-08-21T13:38:31;22.60;99.90
25192;DHT22;13143;50.924;5.320;2022-08-21T13:40:59;22.60;99.80
25192;DHT22;13143;50.924;5.320;2022-08-21T13:43:30;22.70;99.50
25192;DHT22;13143;50.924;5.320;2022-08-21T13:45:57;22.70;99.40
25192;DHT22;13143;50.924;5.320;2022-08-21T13:48:26;22.70;99.40
25192;DHT22;13143;50.924;5.320;2022-08-21T13:50:54;22.70;99.60
25192;DHT22;13143;50.924;5.320;2022-08-21T13:53:30;22.80;99.70
25192;DHT22;13143;50.924;5.320;2022-08-21T13:55:57;22.80;99.40
25192;DHT22;13143;50.924;5.320;2022-08-21T13:58:27;22.80;99.10
25192;DHT22;13143;50.924;5.320;2022-08-21T14:00:54;22.90;99.00
25192;DHT22;13143;50.924;5.320;2022-08-21T14:03:42;22.90;99.00
25192;DHT22;13143;50.924;5.320;2022-08-21T14:06:22;22.90;98.70
25192;DHT22;13143;50.924;5.320;2022-08-21T14:08:52;22.90;98.60
25192;DHT22;13143;50.924;5.320;2022-08-21T14:11:19;23.00;98.80
25192;DHT22;13143;50.924;5.320;2022-08-21T14:14:00;23.00;98.70
25192;DHT22;13143;50.924;5.320;2022-08-21T14:16:39;23.00;98.80
25192;DHT22;13143;50.924;5.320;2022-08-21T14:19:27;23.00;98.70
25192;DHT22;13143;50.924;5.320;2022-08-21T14:22:00;23.10;98.80
25192;DHT22;13143;50.924;5.320;2022-08-21T14:24:28;23.10;98.90
25192;DHT22;13143;50.924;5.320;2022-08-21T14:27:17;23.10;98.70
25192;DHT22;13143;50.924;5.320;2022-08-21T14:29:43;23.20;98.70
25192;DHT22;13143;50.924;5.320;2022-08-21T14:32:15;23.10;98.50
25192;DHT22;13143;50.924;5.320;2022-08-21T14:34:41;23.20;98.50
25192;DHT22;13143;50.924;5.320;2022-08-21T14:37:07;23.20;98.60
25192;DHT22;13143;50.924;5.320;2022-08-21T14:39:33;23.20;98.60
25192;DHT22;13143;50.924;5.320;2022-08-21T14:41:59;23.20;98.70
25192;DHT22;13143;50.924;5.320;2022-08-21T14:44:26;23.20;98.80
25192;DHT22;13143;50.924;5.320;2022-08-21T14:46:53;23.20;98.70
25192;DHT22;13143;50.924;5.320;2022-08-21T14:49:21;23.20;98.80
25192;DHT22;13143;50.924;5.320;2022-08-21T14:51:46;23.30;98.70
25192;DHT22;13143;50.924;5.320;2022-08-21T14:54:12;23.30;98.70
25192;DHT22;13143;50.924;5.320;2022-08-21T14:56:38;23.30;98.30
25192;DHT22;13143;50.924;5.320;2022-08-21T14:59:06;23.30;98.10
25192;DHT22;13143;50.924;5.320;2022-08-21T15:01:43;23.30;98.10
25192;DHT22;13143;50.924;5.320;2022-08-21T15:04:09;23.30;98.00
25192;DHT22;13143;50.924;5.320;2022-08-21T15:06:35;23.30;97.90
25192;DHT22;13143;50.924;5.320;2022-08-21T15:09:01;23.40;98.10
25192;DHT22;13143;50.924;5.320;2022-08-21T15:11:29;23.40;98.00
25192;DHT22;13143;50.924;5.320;2022-08-21T15:13:58;23.40;98.00
25192;DHT22;13143;50.924;5.320;2022-08-21T15:16:26;23.40;98.10
25192;DHT22;13143;50.924;5.320;2022-08-21T15:18:52;23.40;98.10
25192;DHT22;13143;50.924;5.320;2022-08-21T15:21:17;23.40;98.20
25192;DHT22;13143;50.924;5.320;2022-08-21T15:23:43;23.40;98.10
25192;DHT22;13143;50.924;5.320;2022-08-21T15:26:09;23.50;98.10
25192;DHT22;13143;50.924;5.320;2022-08-21T15:28:35;23.50;98.10
25192;DHT22;13143;50.924;5.320;2022-08-21T15:31:02;23.50;97.70
25192;DHT22;13143;50.924;5.320;2022-08-21T15:33:27;23.50;97.70
25192;DHT22;13143;50.924;5.320;2022-08-21T15:35:54;23.50;97.80
25192;DHT22;13143;50.924;5.320;2022-08-21T15:38:19;23.50;97.80
25192;DHT22;13143;50.924;5.320;2022-08-21T15:40:45;23.50;97.40
25192;DHT22;13143;50.924;5.320;2022-08-21T15:43:24;23.50;97.40
25192;DHT22;13143;50.924;5.320;2022-08-21T15:45:51;23.50;97.50
25192;DHT22;13143;50.924;5.320;2022-08-21T15:48:17;23.60;97.50
25192;DHT22;13143;50.924;5.320;2022-08-21T15:50:43;23.60;97.60
25192;DHT22;13143;50.924;5.320;2022-08-21T15:53:08;23.60;97.70
25192;DHT22;13143;50.924;5.320;2022-08-21T15:55:34;23.60;97.70
25192;DHT22;13143;50.924;5.320;2022-08-21T15:58:00;23.60;97.60
25192;DHT22;13143;50.924;5.320;2022-08-21T16:00:26;23.60;97.60
25192;DHT22;13143;50.924;5.320;2022-08-21T16:02:55;23.60;97.70
25192;DHT22;13143;50.924;5.320;2022-08-21T16:05:22;23.60;97.50
25192;DHT22;13143;50.924;5.320;2022-08-21T16:07:49;23.60;97.30
25192;DHT22;13143;50.924;5.320;2022-08-21T16:10:19;23.60;97.30
25192;DHT22;13143;50.924;5.320;2022-08-21T16:12:53;23.60;97.30
25192;DHT22;13143;50.924;5.320;2022-08-21T16:15:19;23.70;97.10
25192;DHT22;13143;50.924;5.320;2022-08-21T16:17:47;23.70;97.00
25192;DHT22;13143;50.924;5.320;2022-08-21T16:20:17;23.70;96.90
25192;DHT22;13143;50.924;5.320;2022-08-21T16:22:43;23.70;96.80
25192;DHT22;13143;50.924;5.320;2022-08-21T16:25:09;23.70;96.90
25192;DHT22;13143;50.924;5.320;2022-08-21T16:27:35;23.70;96.80
25192;DHT22;13143;50.924;5.320;2022-08-21T16:30:04;23.70;96.70
25192;DHT22;13143;50.924;5.320;2022-08-21T16:32:30;23.70;96.80
25192;DHT22;13143;50.924;5.320;2022-08-21T16:34:55;23.70;97.00
25192;DHT22;13143;50.924;5.320;2022-08-21T16:37:22;23.70;97.10
25192;DHT22;13143;50.924;5.320;2022-08-21T16:39:48;23.70;97.00
25192;DHT22;13143;50.924;5.320;2022-08-21T16:42:16;23.70;97.00
25192;DHT22;13143;50.924;5.320;2022-08-21T16:44:43;23.80;97.00
25192;DHT22;13143;50.924;5.320;2022-08-21T16:47:08;23.70;97.00
25192;DHT22;13143;50.924;5.320;2022-08-21T16:49:34;23.70;97.10
25192;DHT22;13143;50.924;5.320;2022-08-21T16:52:00;23.70;97.00
25192;DHT22;13143;50.924;5.320;2022-08-21T16:54:26;23.70;97.00
25192;DHT22;13143;50.924;5.320;2022-08-21T16:56:52;23.70;96.90
25192;DHT22;13143;50.924;5.320;2022-08-21T16:59:18;23.70;97.00
25192;DHT22;13143;50.924;5.320;2022-08-21T17:01:44;23.70;97.30
25192;DHT22;13143;50.924;5.320;2022-08-21T17:04:10;23.70;97.10